Time;durP1;ratioP1;P1;durP2;ratioP2;P2;SDS_P1;SDS_P2;PMS_P1;PMS_P2;Temp;Humidity;BMP_temperature;BMP_pressure;BME280_temperature;BME280_humidity;BME280_pressure;Samples;Min_cycle;Max_cycle;Signal;HPM_P1;HPM_P2
2021/11/20 00:00:40;;;;;;;;;;;16.10;99.90;;;;;;5056654;28;1909;-52
2021/11/20 00:03:07;;;;;;;;;;;16.10;99.90;;;;;;5056206;28;916;-52
2021/11/20 00:05:34;;;;;;;;;;;16.10;99.90;;;;;;5056475;28;833;-51
2021/11/20 00:08:01;;;;;;;;;;;16.10;99.90;;;;;;5055858;28;1123;-52
2021/11/20 00:10:28;;;;;;;;;;;16.10;99.90;;;;;;5058983;28;1456;-52
2021/11/20 00:12:55;;;;;;;;;;;16.20;99.90;;;;;;5066835;28;1183;-51
2021/11/20 00:15:25;;;;;;;;;;;16.20;99.90;;;;;;5040789;28;1264;-52
2021/11/20 00:17:52;;;;;;;;;;;16.20;99.90;;;;;;5056087;28;861;-52
2021/11/20 00:20:22;;;;;;;;;;;16.10;99.90;;;;;;5055812;28;1910;-52
2021/11/20 00:22:51;;;;;;;;;;;16.10;99.90;;;;;;5056298;28;833;-52
2021/11/20 00:25:21;;;;;;;;;;;16.10;99.90;;;;;;5056251;28;1035;-52
2021/11/20 00:27:48;;;;;;;;;;;16.10;99.90;;;;;;5021985;28;1014;-52
2021/11/20 00:30:22;;;;;;;;;;;16.10;99.90;;;;;;5056052;28;873;-52
2021/11/20 00:33:08;;;;;;;;;;;16.10;99.90;;;;;;5060341;28;1208;-51
2021/11/20 00:35:37;;;;;;;;;;;16.10;99.90;;;;;;5063249;28;1274;-51
2021/11/20 00:38:07;;;;;;;;;;;16.00;99.90;;;;;;5064339;28;1356;-52
2021/11/20 00:40:36;;;;;;;;;;;16.00;99.90;;;;;;4981546;28;1902;-52
2021/11/20 00:43:03;;;;;;;;;;;16.00;99.90;;;;;;5121209;22;1875;-51
2021/11/20 00:45:30;;;;;;;;;;;15.90;99.90;;;;;;5075657;28;970;-52
2021/11/20 00:47:56;;;;;;;;;;;15.90;99.90;;;;;;5075646;28;1072;-51
2021/11/20 00:50:24;;;;;;;;;;;15.90;99.90;;;;;;5075684;28;1211;-51
2021/11/20 00:52:50;;;;;;;;;;;15.90;99.90;;;;;;5075835;28;776;-51
2021/11/20 00:55:18;;;;;;;;;;;15.80;99.90;;;;;;5057686;28;978;-51
2021/11/20 00:57:45;;;;;;;;;;;15.70;99.90;;;;;;5075065;28;907;-52
2021/11/20 01:00:13;;;;;;;;;;;15.70;99.90;;;;;;5075949;28;1897;-51
2021/11/20 01:02:40;;;;;;;;;;;15.80;99.90;;;;;;5075970;28;1175;-51
2021/11/20 01:05:07;;;;;;;;;;;15.80;99.90;;;;;;5075684;28;770;-53
2021/11/20 01:07:34;;;;;;;;;;;15.70;99.90;;;;;;5075963;28;885;-54
2021/11/20 01:10:00;;;;;;;;;;;15.70;99.90;;;;;;5075748;28;853;-54
2021/11/20 01:12:32;;;;;;;;;;;15.70;99.90;;;;;;5075523;28;809;-55
2021/11/20 01:14:59;;;;;;;;;;;15.70;99.90;;;;;;5026753;28;930;-53
2021/11/20 01:17:26;;;;;;;;;;;15.70;99.90;;;;;;5075165;28;803;-53
2021/11/20 01:19:53;;;;;;;;;;;15.70;99.90;;;;;;5075493;28;802;-53
2021/11/20 01:22:21;;;;;;;;;;;15.70;99.90;;;;;;5058157;28;1902;-54
2021/11/20 01:24:47;;;;;;;;;;;15.70;99.90;;;;;;5074898;28;892;-53
2021/11/20 01:27:13;;;;;;;;;;;15.70;99.90;;;;;;5074492;28;812;-53
2021/11/20 01:29:39;;;;;;;;;;;15.70;99.90;;;;;;5075561;28;860;-54
2021/11/20 01:32:06;;;;;;;;;;;15.70;99.90;;;;;;5075586;28;804;-55
2021/11/20 01:34:32;;;;;;;;;;;15.70;99.90;;;;;;5075818;28;834;-53
2021/11/20 01:36:59;;;;;;;;;;;15.70;99.90;;;;;;5075638;28;839;-53
2021/11/20 01:39:28;;;;;;;;;;;15.70;99.90;;;;;;5075760;28;1226;-55
2021/11/20 01:41:57;;;;;;;;;;;15.70;99.90;;;;;;5041094;28;1973;-53
2021/11/20 01:44:26;;;;;;;;;;;15.70;99.90;;;;;;5074931;28;1488;-52
2021/11/20 01:46:55;;;;;;;;;;;15.60;99.90;;;;;;5074434;28;1110;-51
2021/11/20 01:49:32;;;;;;;;;;;15.60;99.90;;;;;;5075408;28;750;-52
2021/11/20 01:52:07;;;;;;;;;;;15.60;99.90;;;;;;5075231;28;797;-51
2021/11/20 01:54:39;;;;;;;;;;;15.60;99.90;;;;;;5078521;28;1002;-55
2021/11/20 01:57:13;;;;;;;;;;;15.60;99.90;;;;;;5079098;28;897;-53
2021/11/20 01:59:43;;;;;;;;;;;15.50;99.90;;;;;;5078811;28;809;-54
2021/11/20 02:02:17;;;;;;;;;;;15.60;99.90;;;;;;5078801;28;1906;-54
2021/11/20 02:04:43;;;;;;;;;;;15.50;99.90;;;;;;5078787;28;840;-53
2021/11/20 02:07:15;;;;;;;;;;;15.50;99.90;;;;;;5076960;28;1241;-54
2021/11/20 02:09:43;;;;;;;;;;;15.50;99.90;;;;;;5061101;28;900;-54
2021/11/20 02:12:13;;;;;;;;;;;15.50;99.90;;;;;;5078888;28;1290;-54
2021/11/20 02:14:42;;;;;;;;;;;15.50;99.90;;;;;;5078819;28;837;-54
2021/11/20 02:17:27;;;;;;;;;;;15.50;99.90;;;;;;5077020;28;796;-53
2021/11/20 02:19:55;;;;;;;;;;;15.40;99.90;;;;;;5078046;28;877;-55
2021/11/20 02:22:38;;;;;;;;;;;15.50;99.90;;;;;;5078808;28;1968;-54
2021/11/20 02:25:04;;;;;;;;;;;15.40;99.90;;;;;;5044103;28;1151;-54
2021/11/20 02:27:32;;;;;;;;;;;15.40;99.90;;;;;;5043954;28;1837;-54
2021/11/20 02:30:26;;;;;;;;;;;15.40;99.90;;;;;;5043789;28;1036;-53
2021/11/20 02:32:54;;;;;;;;;;;15.40;99.90;;;;;;5041012;28;1146;-54
2021/11/20 02:35:24;;;;;;;;;;;15.40;99.90;;;;;;5078018;28;2038;-54
2021/11/20 02:37:50;;;;;;;;;;;15.40;99.90;;;;;;5077420;28;1045;-54
2021/11/20 02:40:16;;;;;;;;;;;15.30;99.90;;;;;;5078430;28;774;-55
2021/11/20 02:42:43;;;;;;;;;;;15.30;99.90;;;;;;5077761;28;1957;-53
2021/11/20 02:45:12;;;;;;;;;;;15.30;99.90;;;;;;5077552;28;992;-54
2021/11/20 02:47:40;;;;;;;;;;;15.30;99.90;;;;;;5078632;28;868;-54
2021/11/20 02:50:07;;;;;;;;;;;15.30;99.90;;;;;;5078612;28;869;-54
2021/11/20 02:52:33;;;;;;;;;;;15.30;99.90;;;;;;5078696;28;971;-54
2021/11/20 02:54:59;;;;;;;;;;;15.30;99.90;;;;;;5079002;28;806;-54
2021/11/20 02:57:33;;;;;;;;;;;15.30;99.90;;;;;;5077851;28;888;-55
2021/11/20 02:59:59;;;;;;;;;;;15.30;99.90;;;;;;5053329;28;922;-54
2021/11/20 03:02:25;;;;;;;;;;;15.30;99.90;;;;;;5056197;28;1902;-55
2021/11/20 03:04:52;;;;;;;;;;;15.30;99.90;;;;;;5057979;28;976;-54
2021/11/20 03:07:17;;;;;;;;;;;15.20;99.90;;;;;;5058220;28;931;-55
2021/11/20 03:09:46;;;;;;;;;;;15.30;99.90;;;;;;5059185;28;1002;-54
2021/11/20 03:12:13;;;;;;;;;;;15.30;99.90;;;;;;5057809;28;917;-54
2021/11/20 03:14:41;;;;;;;;;;;15.20;99.90;;;;;;5057824;28;964;-53
2021/11/20 03:17:10;;;;;;;;;;;15.20;99.90;;;;;;5040999;28;1101;-55
2021/11/20 03:19:41;;;;;;;;;;;15.20;99.90;;;;;;5056102;28;827;-55
2021/11/20 03:22:11;;;;;;;;;;;15.20;99.90;;;;;;5055736;28;1965;-53
2021/11/20 03:24:38;;;;;;;;;;;15.20;99.90;;;;;;5036694;28;978;-54
2021/11/20 03:27:04;;;;;;;;;;;15.20;99.90;;;;;;5053349;28;784;-53
2021/11/20 03:29:30;;;;;;;;;;;15.20;99.90;;;;;;5052977;28;834;-53
2021/11/20 03:31:57;;;;;;;;;;;15.20;99.90;;;;;;5074858;28;873;-53
2021/11/20 03:34:25;;;;;;;;;;;15.20;99.90;;;;;;5058832;28;886;-53
2021/11/20 03:36:51;;;;;;;;;;;15.20;99.90;;;;;;5076524;28;1184;-54
2021/11/20 03:39:17;;;;;;;;;;;15.20;99.90;;;;;;5077002;28;974;-53
2021/11/20 03:41:44;;;;;;;;;;;15.20;99.90;;;;;;5076403;28;1906;-53
2021/11/20 03:44:11;;;;;;;;;;;15.20;99.90;;;;;;5076702;28;1134;-54
2021/11/20 03:46:38;;;;;;;;;;;15.10;99.90;;;;;;5058966;28;986;-53
2021/11/20 03:49:03;;;;;;;;;;;15.10;99.90;;;;;;5059395;28;854;-54
2021/11/20 03:51:29;;;;;;;;;;;15.10;99.90;;;;;;5077030;28;764;-54
2021/11/20 03:53:56;;;;;;;;;;;15.10;99.90;;;;;;5058858;28;801;-53
2021/11/20 03:56:22;;;;;;;;;;;15.10;99.90;;;;;;5076274;28;806;-53
2021/11/20 03:58:49;;;;;;;;;;;15.10;99.90;;;;;;5076567;28;880;-53
2021/11/20 04:01:18;;;;;;;;;;;15.10;99.90;;;;;;5076627;28;1914;-53
2021/11/20 04:03:46;;;;;;;;;;;15.10;99.90;;;;;;5076229;28;842;-53
2021/11/20 04:06:15;;;;;;;;;;;15.10;99.90;;;;;;5076384;28;865;-53
2021/11/20 04:08:44;;;;;;;;;;;15.10;99.90;;;;;;5076533;28;817;-54
2021/11/20 04:11:11;;;;;;;;;;;15.10;99.90;;;;;;5076256;28;1010;-53
2021/11/20 04:13:38;;;;;;;;;;;15.10;99.90;;;;;;5075351;28;1340;-53
2021/11/20 04:16:05;;;;;;;;;;;15.10;99.90;;;;;;5056636;28;1492;-53
2021/11/20 04:18:31;;;;;;;;;;;15.10;99.90;;;;;;5076624;28;933;-53
2021/11/20 04:20:57;;;;;;;;;;;15.10;99.90;;;;;;5057924;28;1963;-53
2021/11/20 04:23:23;;;;;;;;;;;15.00;99.90;;;;;;5076313;28;852;-53
2021/11/20 04:25:51;;;;;;;;;;;15.10;99.90;;;;;;5076236;28;865;-53
2021/11/20 04:28:18;;;;;;;;;;;15.10;99.90;;;;;;5076097;28;844;-53
2021/11/20 04:30:46;;;;;;;;;;;15.00;99.90;;;;;;5075741;28;825;-54
2021/11/20 04:33:14;;;;;;;;;;;15.00;99.90;;;;;;5058668;28;828;-54
2021/11/20 04:35:41;;;;;;;;;;;15.00;99.90;;;;;;5075973;28;802;-53
2021/11/20 04:38:07;;;;;;;;;;;15.00;99.90;;;;;;5058113;28;1056;-54
2021/11/20 04:40:35;;;;;;;;;;;15.00;99.90;;;;;;5058266;28;1009;-53
2021/11/20 04:43:02;;;;;;;;;;;15.00;99.90;;;;;;5075779;28;1870;-53
2021/11/20 04:45:32;;;;;;;;;;;15.00;99.90;;;;;;5074818;28;866;-53
2021/11/20 04:48:00;;;;;;;;;;;15.00;99.90;;;;;;5072767;28;854;-53
2021/11/20 04:50:27;;;;;;;;;;;15.00;99.90;;;;;;5057749;28;936;-54
2021/11/20 04:52:53;;;;;;;;;;;15.00;99.90;;;;;;5076138;28;876;-54
2021/11/20 04:55:20;;;;;;;;;;;15.00;99.90;;;;;;5076155;28;783;-53
2021/11/20 04:57:46;;;;;;;;;;;15.00;99.90;;;;;;5058078;28;1596;-53
2021/11/20 05:00:19;;;;;;;;;;;15.00;99.90;;;;;;5075812;28;895;-53
2021/11/20 05:02:45;;;;;;;;;;;15.00;99.90;;;;;;5075429;28;1906;-53
2021/11/20 05:05:12;;;;;;;;;;;15.00;99.90;;;;;;5075603;28;866;-54
2021/11/20 05:07:38;;;;;;;;;;;15.00;99.90;;;;;;5075762;28;828;-54
2021/11/20 05:10:05;;;;;;;;;;;15.00;99.90;;;;;;5075317;28;1010;-53
2021/11/20 05:12:31;;;;;;;;;;;14.90;99.90;;;;;;5074974;28;811;-53
2021/11/20 05:14:57;;;;;;;;;;;14.90;99.90;;;;;;5075521;28;831;-53
2021/11/20 05:17:24;;;;;;;;;;;14.90;99.90;;;;;;5075485;28;866;-54
2021/11/20 05:19:50;;;;;;;;;;;14.90;99.90;;;;;;5075082;28;1214;-52
2021/11/20 05:22:16;;;;;;;;;;;14.90;99.90;;;;;;5075314;28;1972;-54
2021/11/20 05:24:42;;;;;;;;;;;14.90;99.90;;;;;;5075637;28;766;-53
2021/11/20 05:27:09;;;;;;;;;;;14.90;99.90;;;;;;5075652;28;856;-53
2021/11/20 05:32:06;;;;;;;;;;;14.90;99.90;;;;;;5079437;28;868;-54
2021/11/20 05:34:31;;;;;;;;;;;14.90;99.90;;;;;;5079757;28;817;-53
2021/11/20 05:36:58;;;;;;;;;;;14.90;99.90;;;;;;5079561;28;897;-53
2021/11/20 05:39:24;;;;;;;;;;;14.80;99.90;;;;;;5078683;28;1133;-53
2021/11/20 05:41:52;;;;;;;;;;;14.90;99.90;;;;;;5061357;28;1902;-52
2021/11/20 05:44:18;;;;;;;;;;;14.90;99.90;;;;;;5078939;28;1199;-53
2021/11/20 05:46:44;;;;;;;;;;;14.80;99.90;;;;;;5076114;28;794;-54
2021/11/20 05:49:10;;;;;;;;;;;14.80;99.90;;;;;;5017644;28;925;-53
2021/11/20 05:51:37;;;;;;;;;;;14.80;99.90;;;;;;5017453;28;832;-53
2021/11/20 05:54:05;;;;;;;;;;;14.80;99.90;;;;;;5017387;28;886;-53
2021/11/20 05:56:31;;;;;;;;;;;14.80;99.90;;;;;;5017564;28;1013;-53
2021/11/20 05:58:57;;;;;;;;;;;14.80;99.90;;;;;;5017357;28;822;-54
2021/11/20 06:01:24;;;;;;;;;;;14.80;99.90;;;;;;5017480;28;1913;-53
2021/11/20 06:03:50;;;;;;;;;;;14.80;99.90;;;;;;5017464;28;947;-53
2021/11/20 06:06:17;;;;;;;;;;;14.80;99.90;;;;;;5015485;28;1444;-53
2021/11/20 06:08:43;;;;;;;;;;;14.80;99.90;;;;;;5017366;28;833;-54
2021/11/20 06:11:11;;;;;;;;;;;14.80;99.90;;;;;;5017327;28;814;-53
2021/11/20 06:13:37;;;;;;;;;;;14.80;99.90;;;;;;5017025;28;842;-52
2021/11/20 06:16:03;;;;;;;;;;;14.80;99.90;;;;;;5017290;28;935;-54
2021/11/20 06:18:29;;;;;;;;;;;14.80;99.90;;;;;;5017243;28;849;-52
2021/11/20 06:20:57;;;;;;;;;;;14.80;99.90;;;;;;5064585;28;1910;-52
2021/11/20 06:23:23;;;;;;;;;;;14.70;99.90;;;;;;5078609;28;811;-53
2021/11/20 06:25:49;;;;;;;;;;;14.70;99.90;;;;;;5078748;28;988;-52
2021/11/20 06:28:15;;;;;;;;;;;14.70;99.90;;;;;;5076913;28;1313;-53
2021/11/20 06:30:42;;;;;;;;;;;14.70;99.90;;;;;;5075299;28;947;-54
2021/11/20 06:33:08;;;;;;;;;;;14.70;99.90;;;;;;5074294;28;1035;-52
2021/11/20 06:35:35;;;;;;;;;;;14.70;99.90;;;;;;5078274;28;974;-53
2021/11/20 06:38:01;;;;;;;;;;;14.70;99.90;;;;;;5078282;28;841;-52
2021/11/20 06:40:29;;;;;;;;;;;14.70;99.90;;;;;;5077303;28;919;-53
2021/11/20 06:43:03;;;;;;;;;;;14.70;99.90;;;;;;5077080;28;1969;-53
2021/11/20 06:45:31;;;;;;;;;;;14.70;99.90;;;;;;5073694;28;821;-53
2021/11/20 06:47:58;;;;;;;;;;;14.70;99.90;;;;;;5077521;28;1049;-52
2021/11/20 06:50:25;;;;;;;;;;;14.70;99.90;;;;;;5078044;28;786;-54
2021/11/20 06:52:51;;;;;;;;;;;14.70;99.90;;;;;;5077005;28;1102;-53
2021/11/20 06:55:18;;;;;;;;;;;14.70;99.90;;;;;;5078020;28;847;-53
2021/11/20 07:00:32;;;;;;;;;;;14.70;99.90;;;;;;4977279;28;1151;-52
2021/11/20 07:03:04;;;;;;;;;;;14.70;99.90;;;;;;4961036;28;1983;-52
2021/11/20 07:05:32;;;;;;;;;;;14.70;99.90;;;;;;4976624;28;1069;-53
2021/11/20 07:07:58;;;;;;;;;;;14.70;99.90;;;;;;4977110;28;894;-53
2021/11/20 07:10:25;;;;;;;;;;;14.70;99.90;;;;;;4976556;28;944;-52
2021/11/20 07:12:52;;;;;;;;;;;14.70;99.90;;;;;;4977150;28;1005;-54
2021/11/20 07:15:18;;;;;;;;;;;14.70;99.90;;;;;;4977058;28;845;-52
2021/11/20 07:17:46;;;;;;;;;;;14.70;99.90;;;;;;4977080;28;928;-53
2021/11/20 07:20:12;;;;;;;;;;;14.70;99.90;;;;;;4977070;28;810;-52
2021/11/20 07:22:40;;;;;;;;;;;14.70;99.90;;;;;;4975905;28;1969;-54
2021/11/20 07:25:06;;;;;;;;;;;14.70;99.90;;;;;;4973986;28;1065;-54
2021/11/20 07:27:32;;;;;;;;;;;14.70;99.90;;;;;;4976406;28;919;-53
2021/11/20 07:29:59;;;;;;;;;;;14.70;99.90;;;;;;4976617;28;1035;-54
2021/11/20 07:32:27;;;;;;;;;;;14.70;99.90;;;;;;4960846;28;900;-53
2021/11/20 07:34:54;;;;;;;;;;;14.80;99.90;;;;;;4976987;28;1041;-53
2021/11/20 07:37:21;;;;;;;;;;;14.80;99.90;;;;;;5014959;28;1138;-51
2021/11/20 07:39:47;;;;;;;;;;;14.90;99.90;;;;;;5076624;28;873;-51
2021/11/20 07:42:13;;;;;;;;;;;14.90;99.90;;;;;;5076963;28;1902;-51
2021/11/20 07:44:40;;;;;;;;;;;15.00;99.90;;;;;;5077003;28;774;-52
2021/11/20 07:47:08;;;;;;;;;;;15.10;99.90;;;;;;5071662;28;802;-52
2021/11/20 07:49:35;;;;;;;;;;;15.10;99.90;;;;;;5059315;28;1392;-52
2021/11/20 07:52:02;;;;;;;;;;;15.20;99.90;;;;;;5076107;28;789;-52
2021/11/20 07:54:29;;;;;;;;;;;15.30;99.90;;;;;;5076835;28;763;-52
2021/11/20 07:56:55;;;;;;;;;;;15.40;99.90;;;;;;5059175;28;860;-52
2021/11/20 07:59:21;;;;;;;;;;;15.50;99.90;;;;;;5076770;28;1492;-52
2021/11/20 08:01:47;;;;;;;;;;;15.60;99.90;;;;;;5076307;28;1967;-52
2021/11/20 08:04:14;;;;;;;;;;;15.70;99.90;;;;;;5076634;28;843;-52
2021/11/20 08:06:41;;;;;;;;;;;15.80;99.90;;;;;;5058545;28;930;-52
2021/11/20 08:09:09;;;;;;;;;;;15.90;99.90;;;;;;5076674;28;773;-52
2021/11/20 08:11:38;;;;;;;;;;;15.90;99.90;;;;;;5076813;28;777;-54
2021/11/20 08:14:06;;;;;;;;;;;16.00;99.90;;;;;;5075952;28;882;-51
2021/11/20 08:16:32;;;;;;;;;;;16.00;99.90;;;;;;5075639;28;829;-51
2021/11/20 08:18:58;;;;;;;;;;;16.10;99.90;;;;;;5076519;28;829;-51
2021/11/20 08:21:25;;;;;;;;;;;16.10;99.90;;;;;;5076154;28;1884;-51
2021/11/20 08:23:51;;;;;;;;;;;16.20;99.90;;;;;;5071239;28;1033;-51
2021/11/20 08:26:18;;;;;;;;;;;16.20;99.90;;;;;;5025126;28;985;-51
2021/11/20 08:28:44;;;;;;;;;;;16.30;99.90;;;;;;5076330;28;857;-51
2021/11/20 08:31:10;;;;;;;;;;;16.30;99.90;;;;;;5076492;28;819;-51
2021/11/20 08:33:37;;;;;;;;;;;16.30;99.90;;;;;;5076155;28;807;-51
2021/11/20 08:36:07;;;;;;;;;;;16.30;99.90;;;;;;5075511;28;2059;-50
2021/11/20 08:38:32;;;;;;;;;;;16.40;99.90;;;;;;5076308;28;793;-50
2021/11/20 08:40:58;;;;;;;;;;;16.40;99.90;;;;;;5075914;28;995;-50
2021/11/20 08:43:28;;;;;;;;;;;16.50;99.90;;;;;;5075627;28;1898;-50
2021/11/20 08:45:55;;;;;;;;;;;16.40;99.90;;;;;;5075972;28;825;-50
2021/11/20 08:48:21;;;;;;;;;;;16.50;99.90;;;;;;5076190;28;809;-50
2021/11/20 08:50:49;;;;;;;;;;;16.50;99.90;;;;;;5057627;28;1137;-50
2021/11/20 08:53:15;;;;;;;;;;;16.50;99.90;;;;;;5057787;28;940;-50
2021/11/20 08:55:42;;;;;;;;;;;16.60;99.90;;;;;;5075876;28;757;-50
2021/11/20 08:58:09;;;;;;;;;;;16.60;99.90;;;;;;5075757;28;892;-50
2021/11/20 09:00:38;;;;;;;;;;;16.60;99.90;;;;;;5075849;28;855;-51
2021/11/20 09:03:07;;;;;;;;;;;16.60;99.90;;;;;;5075697;28;1906;-52
2021/11/20 09:05:47;;;;;;;;;;;16.60;99.90;;;;;;5058304;28;878;-52
2021/11/20 09:08:19;;;;;;;;;;;16.60;99.90;;;;;;5075846;28;975;-52
2021/11/20 09:10:50;;;;;;;;;;;16.60;99.90;;;;;;5076066;28;757;-52
2021/11/20 09:13:19;;;;;;;;;;;16.60;99.90;;;;;;5074906;28;1003;-52
2021/11/20 09:15:51;;;;;;;;;;;16.60;99.90;;;;;;5073071;28;884;-52
2021/11/20 09:18:17;;;;;;;;;;;16.60;99.90;;;;;;5075050;28;961;-52
2021/11/20 09:20:43;;;;;;;;;;;16.70;99.90;;;;;;5075639;28;847;-52
2021/11/20 09:23:09;;;;;;;;;;;16.70;99.90;;;;;;5075326;28;1906;-52
2021/11/20 09:25:37;;;;;;;;;;;16.80;99.90;;;;;;5075602;28;824;-52
2021/11/20 09:28:07;;;;;;;;;;;16.80;99.90;;;;;;5075146;28;916;-52
2021/11/20 09:30:36;;;;;;;;;;;16.80;99.90;;;;;;5075554;28;718;-52
2021/11/20 09:33:21;;;;;;;;;;;16.90;99.90;;;;;;5075959;28;711;-52
2021/11/20 09:35:47;;;;;;;;;;;16.90;99.90;;;;;;5058011;28;764;-51
2021/11/20 09:38:14;;;;;;;;;;;17.00;99.90;;;;;;5075536;28;778;-51
2021/11/20 09:40:42;;;;;;;;;;;17.00;99.90;;;;;;5075496;28;830;-51
2021/11/20 09:43:09;;;;;;;;;;;17.00;99.90;;;;;;5074366;28;1979;-51
2021/11/20 09:45:37;;;;;;;;;;;17.10;99.90;;;;;;5074005;28;863;-51
2021/11/20 09:48:24;;;;;;;;;;;17.10;99.90;;;;;;5075607;28;792;-52
2021/11/20 09:50:53;;;;;;;;;;;17.10;99.90;;;;;;5075661;28;746;-51
2021/11/20 09:53:20;;;;;;;;;;;17.10;99.90;;;;;;5075463;28;967;-51
2021/11/20 09:55:48;;;;;;;;;;;17.10;99.90;;;;;;5072227;28;1297;-52
2021/11/20 09:58:35;;;;;;;;;;;17.10;99.90;;;;;;5074930;28;844;-51
2021/11/20 10:01:13;;;;;;;;;;;17.20;99.90;;;;;;5074501;28;983;-51
2021/11/20 10:03:45;;;;;;;;;;;17.20;99.90;;;;;;5075491;28;1910;-51
2021/11/20 10:06:20;;;;;;;;;;;17.20;99.90;;;;;;5040525;28;924;-52
2021/11/20 10:08:48;;;;;;;;;;;17.30;99.90;;;;;;5074131;28;1127;-51
2021/11/20 10:11:31;;;;;;;;;;;17.30;99.90;;;;;;5068822;28;1076;-52
2021/11/20 10:14:09;;;;;;;;;;;17.40;99.90;;;;;;5075078;28;1051;-51
2021/11/20 10:16:55;;;;;;;;;;;17.50;99.90;;;;;;5073186;28;769;-52
2021/11/20 10:19:21;;;;;;;;;;;17.40;99.90;;;;;;5059839;28;2471;-51
2021/11/20 10:21:58;;;;;;;;;;;17.40;99.90;;;;;;5077892;28;1909;-52
2021/11/20 10:24:24;;;;;;;;;;;17.40;99.90;;;;;;5078265;28;1036;-52
2021/11/20 10:26:56;;;;;;;;;;;17.40;99.90;;;;;;5077888;28;969;-51
2021/11/20 10:29:45;;;;;;;;;;;17.40;99.90;;;;;;5073565;28;1120;-52
2021/11/20 10:32:17;;;;;;;;;;;17.40;99.90;;;;;;5075685;28;1320;-52
2021/11/20 10:35:02;;;;;;;;;;;17.40;99.90;;;;;;5077957;28;785;-51
2021/11/20 10:38:02;;;;;;;;;;;17.40;99.90;;;;;;5078158;28;937;-51
2021/11/20 10:40:30;;;;;;;;;;;17.40;99.90;;;;;;5077449;28;944;-51
2021/11/20 10:43:04;;;;;;;;;;;17.50;99.90;;;;;;5077911;28;1968;-51
2021/11/20 10:45:45;;;;;;;;;;;17.40;99.90;;;;;;5076586;28;829;-51
2021/11/20 10:48:24;;;;;;;;;;;17.40;99.90;;;;;;5034873;28;895;-51
2021/11/20 10:51:12;;;;;;;;;;;17.50;99.90;;;;;;5036417;28;835;-51
2021/11/20 10:53:56;;;;;;;;;;;17.50;99.90;;;;;;5035950;28;1834;-51
2021/11/20 10:56:39;;;;;;;;;;;17.50;99.90;;;;;;5034474;28;1217;-51
2021/11/20 10:59:11;;;;;;;;;;;17.50;99.90;;;;;;5034867;28;1083;-52
2021/11/20 11:01:55;;;;;;;;;;;17.50;99.90;;;;;;5034330;28;1910;-52
2021/11/20 11:04:39;;;;;;;;;;;17.60;99.90;;;;;;5035912;28;1416;-52
2021/11/20 11:07:11;;;;;;;;;;;17.70;99.90;;;;;;5034741;28;1135;-52
2021/11/20 11:09:48;;;;;;;;;;;17.70;99.90;;;;;;4996534;28;1274;-52
2021/11/20 11:12:26;;;;;;;;;;;17.70;99.90;;;;;;5032289;28;1151;-52
2021/11/20 11:14:55;;;;;;;;;;;17.80;99.90;;;;;;5033158;28;1297;-52
2021/11/20 11:17:27;;;;;;;;;;;17.80;99.90;;;;;;5032108;28;1048;-51
2021/11/20 11:20:10;;;;;;;;;;;17.80;99.90;;;;;;5066289;28;1170;-51
2021/11/20 11:22:43;;;;;;;;;;;17.80;99.90;;;;;;5074160;28;1898;-50
2021/11/20 11:25:21;;;;;;;;;;;17.90;99.90;;;;;;5058991;28;1221;-51
2021/11/20 11:27:49;;;;;;;;;;;17.90;99.90;;;;;;5077709;28;793;-50
2021/11/20 11:30:34;;;;;;;;;;;18.00;99.90;;;;;;5077180;28;864;-51
2021/11/20 11:33:02;;;;;;;;;;;18.00;99.90;;;;;;5076624;28;905;-51
2021/11/20 11:35:37;;;;;;;;;;;18.00;99.90;;;;;;5077244;28;753;-51
2021/11/20 11:38:18;;;;;;;;;;;18.00;99.90;;;;;;5076253;28;805;-52
2021/11/20 11:40:47;;;;;;;;;;;18.00;99.90;;;;;;5077452;28;1083;-51
2021/11/20 11:43:20;;;;;;;;;;;17.80;99.90;;;;;;5055869;28;1886;-51
2021/11/20 11:45:46;;;;;;;;;;;17.90;99.90;;;;;;5073807;28;1404;-51
2021/11/20 11:48:31;;;;;;;;;;;18.00;99.90;;;;;;5077187;28;805;-52
2021/11/20 11:51:15;;;;;;;;;;;18.00;99.90;;;;;;5077112;28;1017;-50
2021/11/20 11:53:55;;;;;;;;;;;18.10;99.90;;;;;;5076731;28;793;-57
2021/11/20 11:56:29;;;;;;;;;;;18.10;99.90;;;;;;5042137;28;971;-50
2021/11/20 11:59:01;;;;;;;;;;;18.10;99.90;;;;;;5075319;28;1278;-50
2021/11/20 12:01:45;;;;;;;;;;;18.10;99.90;;;;;;5076986;28;1036;-54
2021/11/20 12:04:30;;;;;;;;;;;18.10;99.90;;;;;;5074734;28;810;-54
2021/11/20 12:07:05;;;;;;;;;;;18.00;99.90;;;;;;5074816;28;2321;-54
2021/11/20 12:09:33;;;;;;;;;;;18.00;99.90;;;;;;5075846;28;925;-54
2021/11/20 12:12:10;;;;;;;;;;;18.00;99.90;;;;;;5075770;28;1016;-55
2021/11/20 12:14:38;;;;;;;;;;;17.90;99.90;;;;;;5072186;28;1364;-55
2021/11/20 12:17:16;;;;;;;;;;;17.80;99.90;;;;;;5074053;28;1025;-52
2021/11/20 12:19:49;;;;;;;;;;;17.60;99.90;;;;;;5074808;28;1002;-55
2021/11/20 12:22:45;;;;;;;;;;;16.90;99.90;;;;;;5071533;28;1910;-51
2021/11/20 12:25:23;;;;;;;;;;;16.30;99.90;;;;;;5041297;28;1075;-51
2021/11/20 12:28:07;;;;;;;;;;;15.90;99.90;;;;;;5074095;28;1146;-51
2021/11/20 12:30:36;;;;;;;;;;;15.60;99.90;;;;;;5075440;28;877;-51
2021/11/20 12:33:11;;;;;;;;;;;15.80;99.90;;;;;;5076084;28;1007;-51
2021/11/20 12:35:59;;;;;;;;;;;16.00;99.90;;;;;;5075177;28;1394;-51
2021/11/20 12:38:53;;;;;;;;;;;16.20;99.90;;;;;;5013152;28;852;-51
2021/11/20 12:41:38;;;;;;;;;;;16.30;99.90;;;;;;5009915;28;859;-51
2021/11/20 12:44:04;;;;;;;;;;;16.40;99.90;;;;;;5027237;28;1970;-51
2021/11/20 12:46:49;;;;;;;;;;;16.40;99.90;;;;;;5033775;28;872;-53
2021/11/20 12:49:35;;;;;;;;;;;16.50;99.90;;;;;;5034523;28;881;-51
2021/11/20 12:52:19;;;;;;;;;;;16.60;99.90;;;;;;5033340;28;1011;-53
2021/11/20 12:54:57;;;;;;;;;;;16.70;99.90;;;;;;5033865;28;866;-55
2021/11/20 12:57:25;;;;;;;;;;;16.70;99.90;;;;;;5034382;28;881;-51
2021/11/20 12:59:53;;;;;;;;;;;16.80;99.90;;;;;;5033497;28;881;-51
2021/11/20 13:02:22;;;;;;;;;;;16.80;99.90;;;;;;5034139;28;1914;-53
2021/11/20 13:04:49;;;;;;;;;;;16.80;99.90;;;;;;5034203;28;1072;-53
2021/11/20 13:07:17;;;;;;;;;;;16.80;99.90;;;;;;5034075;28;813;-55
2021/11/20 13:09:48;;;;;;;;;;;16.80;99.90;;;;;;5007793;28;984;-55
2021/11/20 13:12:20;;;;;;;;;;;16.80;99.90;;;;;;5033080;28;1020;-53
2021/11/20 13:15:00;;;;;;;;;;;16.80;99.90;;;;;;5034378;28;880;-52
2021/11/20 13:17:28;;;;;;;;;;;16.80;99.90;;;;;;5001895;28;917;-51
2021/11/20 13:19:57;;;;;;;;;;;16.70;99.90;;;;;;5034327;28;872;-53
2021/11/20 13:22:25;;;;;;;;;;;16.70;99.90;;;;;;5034139;28;1910;-51
2021/11/20 13:24:53;;;;;;;;;;;16.70;99.90;;;;;;5034369;28;1340;-51
2021/11/20 13:27:39;;;;;;;;;;;16.60;99.90;;;;;;5034326;28;807;-51
2021/11/20 13:30:09;;;;;;;;;;;16.60;99.90;;;;;;5071229;28;1021;-51
2021/11/20 13:32:40;;;;;;;;;;;16.60;99.90;;;;;;5074336;28;927;-51
2021/11/20 13:35:07;;;;;;;;;;;16.50;99.90;;;;;;5075512;28;858;-51
2021/11/20 13:37:34;;;;;;;;;;;16.50;99.90;;;;;;5075446;28;809;-53
2021/11/20 13:40:00;;;;;;;;;;;16.50;99.90;;;;;;5075438;28;845;-53
2021/11/20 13:42:37;;;;;;;;;;;16.50;99.90;;;;;;5057072;28;1914;-51
2021/11/20 13:45:07;;;;;;;;;;;16.40;99.90;;;;;;5075409;28;846;-51
2021/11/20 13:47:34;;;;;;;;;;;16.40;99.90;;;;;;5075386;28;899;-51
2021/11/20 13:50:00;;;;;;;;;;;16.40;99.90;;;;;;5077487;28;909;-51
2021/11/20 13:52:29;;;;;;;;;;;16.40;99.90;;;;;;5027688;28;1106;-51
2021/11/20 13:54:56;;;;;;;;;;;16.30;99.90;;;;;;5079277;28;856;-51
2021/11/20 13:57:22;;;;;;;;;;;16.30;99.90;;;;;;5079084;28;906;-52
2021/11/20 13:59:48;;;;;;;;;;;16.30;99.90;;;;;;5078420;28;939;-51
2021/11/20 14:02:19;;;;;;;;;;;16.30;99.90;;;;;;5076456;28;1971;-51
2021/11/20 14:04:45;;;;;;;;;;;16.20;99.90;;;;;;5078948;28;1302;-51
2021/11/20 14:07:14;;;;;;;;;;;16.20;99.90;;;;;;5079058;28;767;-51
2021/11/20 14:09:50;;;;;;;;;;;16.10;99.90;;;;;;5076239;28;969;-51
2021/11/20 14:12:24;;;;;;;;;;;16.10;99.90;;;;;;5060561;28;989;-53
2021/11/20 14:15:00;;;;;;;;;;;16.10;99.90;;;;;;5078674;28;828;-53
2021/11/20 14:17:31;;;;;;;;;;;16.10;99.90;;;;;;5078199;28;802;-53
2021/11/20 14:20:05;;;;;;;;;;;16.00;99.90;;;;;;5078757;28;829;-53
2021/11/20 14:22:36;;;;;;;;;;;16.00;99.90;;;;;;5078463;28;1964;-53
2021/11/20 14:25:02;;;;;;;;;;;16.00;99.90;;;;;;5061125;28;1050;-55
2021/11/20 14:27:31;;;;;;;;;;;16.00;99.90;;;;;;5078547;28;765;-53
2021/11/20 14:29:57;;;;;;;;;;;16.00;99.90;;;;;;5060242;28;945;-53
2021/11/20 14:32:23;;;;;;;;;;;15.90;99.90;;;;;;5078481;28;840;-53
2021/11/20 14:34:50;;;;;;;;;;;15.90;99.90;;;;;;5078366;28;1241;-53
2021/11/20 14:37:24;;;;;;;;;;;15.90;99.90;;;;;;5078457;28;910;-53
2021/11/20 14:39:54;;;;;;;;;;;15.90;99.90;;;;;;5077963;28;973;-53
2021/11/20 14:42:21;;;;;;;;;;;15.80;99.90;;;;;;5078065;28;1902;-53
2021/11/20 14:44:48;;;;;;;;;;;15.80;99.90;;;;;;5076612;28;1138;-53
2021/11/20 14:47:16;;;;;;;;;;;15.80;99.90;;;;;;5077985;28;884;-53
2021/11/20 14:49:53;;;;;;;;;;;15.70;99.90;;;;;;5078206;28;875;-51
2021/11/20 14:52:24;;;;;;;;;;;15.70;99.90;;;;;;5077906;28;1077;-51
2021/11/20 14:54:51;;;;;;;;;;;15.70;99.90;;;;;;5078101;28;751;-55
2021/11/20 14:57:17;;;;;;;;;;;15.70;99.90;;;;;;5077854;28;822;-53
2021/11/20 14:59:44;;;;;;;;;;;15.70;99.90;;;;;;5077403;28;741;-53